sensor_id;sensor_type;location;lat;lon;timestamp;temperature;humidity
51825;DHT22;37879;52.986;6.282;2023-02-10T00:00:01;1.00;99.90
51825;DHT22;37879;52.986;6.282;2023-02-10T00:02:29;0.90;99.90
51825;DHT22;37879;52.986;6.282;2023-02-10T00:04:55;0.90;99.90
51825;DHT22;37879;52.986;6.282;2023-02-10T00:07:21;0.90;99.90
51825;DHT22;37879;52.986;6.282;2023-02-10T00:09:48;0.80;99.90
51825;DHT22;37879;52.986;6.282;2023-02-10T00:12:14;0.90;99.90
51825;DHT22;37879;52.986;6.282;2023-02-10T00:14:39;0.80;99.90
51825;DHT22;37879;52.986;6.282;2023-02-10T00:17:05;1.90;99.90
51825;DHT22;37879;52.986;6.282;2023-02-10T00:19:31;0.70;99.90
51825;DHT22;37879;52.986;6.282;2023-02-10T00:21:59;0.10;99.90
51825;DHT22;37879;52.986;6.282;2023-02-10T00:24:25;0.70;99.90
51825;DHT22;37879;52.986;6.282;2023-02-10T00:26:51;0.70;99.90
51825;DHT22;37879;52.986;6.282;2023-02-10T00:29:16;0.70;99.90
51825;DHT22;37879;52.986;6.282;2023-02-10T00:31:43;0.70;99.90
51825;DHT22;37879;52.986;6.282;2023-02-10T00:34:11;0.70;99.90
51825;DHT22;37879;52.986;6.282;2023-02-10T00:36:37;0.60;99.90
51825;DHT22;37879;52.986;6.282;2023-02-10T00:39:03;0.00;99.90
51825;DHT22;37879;52.986;6.282;2023-02-10T00:41:29;0.60;99.90
51825;DHT22;37879;52.986;6.282;2023-02-10T00:43:54;0.60;99.90
51825;DHT22;37879;52.986;6.282;2023-02-10T00:46:21;0.60;99.90
51825;DHT22;37879;52.986;6.282;2023-02-10T00:48:47;1.10;99.90
51825;DHT22;37879;52.986;6.282;2023-02-10T00:51:14;0.50;99.90
51825;DHT22;37879;52.986;6.282;2023-02-10T00:53:40;1.80;99.90
51825;DHT22;37879;52.986;6.282;2023-02-10T00:56:06;0.30;99.90
51825;DHT22;37879;52.986;6.282;2023-02-10T00:58:32;0.40;99.90
51825;DHT22;37879;52.986;6.282;2023-02-10T01:00:57;2.10;99.90
51825;DHT22;37879;52.986;6.282;2023-02-10T01:03:23;0.40;99.90
51825;DHT22;37879;52.986;6.282;2023-02-10T01:05:49;0.30;99.90
51825;DHT22;37879;52.986;6.282;2023-02-10T01:08:15;0.30;99.90
51825;DHT22;37879;52.986;6.282;2023-02-10T01:10:41;0.30;99.90
51825;DHT22;37879;52.986;6.282;2023-02-10T01:13:09;0.30;99.90
51825;DHT22;37879;52.986;6.282;2023-02-10T01:15:35;0.30;99.90
51825;DHT22;37879;52.986;6.282;2023-02-10T01:18:01;0.30;99.90
51825;DHT22;37879;52.986;6.282;2023-02-10T01:20:26;0.30;99.90
51825;DHT22;37879;52.986;6.282;2023-02-10T01:22:52;0.30;99.90
51825;DHT22;37879;52.986;6.282;2023-02-10T01:25:18;0.40;99.90
51825;DHT22;37879;52.986;6.282;2023-02-10T01:27:44;0.40;99.90
51825;DHT22;37879;52.986;6.282;2023-02-10T01:30:12;0.40;99.90
51825;DHT22;37879;52.986;6.282;2023-02-10T01:32:37;0.40;99.90
51825;DHT22;37879;52.986;6.282;2023-02-10T01:35:03;0.40;99.90
51825;DHT22;37879;52.986;6.282;2023-02-10T01:37:29;0.30;99.90
51825;DHT22;37879;52.986;6.282;2023-02-10T01:39:55;0.30;99.90
51825;DHT22;37879;52.986;6.282;2023-02-10T01:42:21;0.40;99.90
51825;DHT22;37879;52.986;6.282;2023-02-10T01:47:12;0.40;99.90
51825;DHT22;37879;52.986;6.282;2023-02-10T01:49:46;0.50;99.90
51825;DHT22;37879;52.986;6.282;2023-02-10T01:52:22;0.60;99.90
51825;DHT22;37879;52.986;6.282;2023-02-10T01:55:07;0.50;99.90
51825;DHT22;37879;52.986;6.282;2023-02-10T01:57:33;0.50;99.90
51825;DHT22;37879;52.986;6.282;2023-02-10T02:00:01;0.60;99.90
51825;DHT22;37879;52.986;6.282;2023-02-10T02:02:28;0.70;99.90
51825;DHT22;37879;52.986;6.282;2023-02-10T02:04:58;1.00;99.90
51825;DHT22;37879;52.986;6.282;2023-02-10T02:07:26;0.70;99.90
51825;DHT22;37879;52.986;6.282;2023-02-10T02:09:54;0.70;99.90
51825;DHT22;37879;52.986;6.282;2023-02-10T02:15:27;0.80;99.90
51825;DHT22;37879;52.986;6.282;2023-02-10T02:24:21;0.90;99.90
51825;DHT22;37879;52.986;6.282;2023-02-10T02:32:19;0.90;99.90
51825;DHT22;37879;52.986;6.282;2023-02-10T02:35:00;0.90;99.90
51825;DHT22;37879;52.986;6.282;2023-02-10T02:37:45;0.80;99.90
51825;DHT22;37879;52.986;6.282;2023-02-10T02:40:15;0.90;99.90
51825;DHT22;37879;52.986;6.282;2023-02-10T02:42:41;0.80;99.90
51825;DHT22;37879;52.986;6.282;2023-02-10T02:45:10;0.90;99.90
51825;DHT22;37879;52.986;6.282;2023-02-10T02:48:02;0.90;99.90
51825;DHT22;37879;52.986;6.282;2023-02-10T02:50:38;1.00;99.90
51825;DHT22;37879;52.986;6.282;2023-02-10T02:53:28;1.10;99.90
51825;DHT22;37879;52.986;6.282;2023-02-10T02:56:32;1.00;99.90
51825;DHT22;37879;52.986;6.282;2023-02-10T02:59:23;1.10;99.90
51825;DHT22;37879;52.986;6.282;2023-02-10T03:02:01;1.10;99.90
51825;DHT22;37879;52.986;6.282;2023-02-10T03:04:30;1.10;99.90
51825;DHT22;37879;52.986;6.282;2023-02-10T03:06:56;1.10;99.90
51825;DHT22;37879;52.986;6.282;2023-02-10T03:09:23;1.00;99.90
51825;DHT22;37879;52.986;6.282;2023-02-10T03:11:48;1.00;99.90
51825;DHT22;37879;52.986;6.282;2023-02-10T03:14:14;1.00;99.90
51825;DHT22;37879;52.986;6.282;2023-02-10T03:16:40;-0.10;99.90
51825;DHT22;37879;52.986;6.282;2023-02-10T03:19:05;0.90;99.90
51825;DHT22;37879;52.986;6.282;2023-02-10T03:21:31;0.90;99.90
51825;DHT22;37879;52.986;6.282;2023-02-10T03:23:57;0.90;99.90
51825;DHT22;37879;52.986;6.282;2023-02-10T03:26:22;0.90;99.90
51825;DHT22;37879;52.986;6.282;2023-02-10T03:31:14;0.90;99.90
51825;DHT22;37879;52.986;6.282;2023-02-10T03:33:40;1.00;99.90
51825;DHT22;37879;52.986;6.282;2023-02-10T03:36:07;0.90;99.90
51825;DHT22;37879;52.986;6.282;2023-02-10T03:38:32;1.00;99.90
51825;DHT22;37879;52.986;6.282;2023-02-10T03:40:58;0.90;99.90
51825;DHT22;37879;52.986;6.282;2023-02-10T03:43:24;0.90;99.90
51825;DHT22;37879;52.986;6.282;2023-02-10T03:45:49;0.90;99.90
51825;DHT22;37879;52.986;6.282;2023-02-10T03:48:15;0.90;99.90
51825;DHT22;37879;52.986;6.282;2023-02-10T03:50:41;1.20;99.90
51825;DHT22;37879;52.986;6.282;2023-02-10T03:53:07;0.80;99.90
51825;DHT22;37879;52.986;6.282;2023-02-10T03:55:33;1.50;99.90
51825;DHT22;37879;52.986;6.282;2023-02-10T03:58:00;0.80;99.90
51825;DHT22;37879;52.986;6.282;2023-02-10T04:00:26;0.70;99.90
51825;DHT22;37879;52.986;6.282;2023-02-10T04:02:52;0.70;99.90
51825;DHT22;37879;52.986;6.282;2023-02-10T04:05:18;0.60;99.90
51825;DHT22;37879;52.986;6.282;2023-02-10T04:07:43;2.40;99.90
51825;DHT22;37879;52.986;6.282;2023-02-10T04:10:09;1.50;99.90
51825;DHT22;37879;52.986;6.282;2023-02-10T04:12:35;0.50;99.90
51825;DHT22;37879;52.986;6.282;2023-02-10T04:15:01;0.40;99.90
51825;DHT22;37879;52.986;6.282;2023-02-10T04:17:26;0.40;99.90
51825;DHT22;37879;52.986;6.282;2023-02-10T04:19:52;0.40;99.90
51825;DHT22;37879;52.986;6.282;2023-02-10T04:22:18;0.40;99.90
51825;DHT22;37879;52.986;6.282;2023-02-10T04:24:43;0.40;99.90
51825;DHT22;37879;52.986;6.282;2023-02-10T04:27:09;0.40;99.90
51825;DHT22;37879;52.986;6.282;2023-02-10T04:29:34;0.30;99.90
51825;DHT22;37879;52.986;6.282;2023-02-10T04:32:05;0.20;99.90
51825;DHT22;37879;52.986;6.282;2023-02-10T04:34:31;0.20;99.90
51825;DHT22;37879;52.986;6.282;2023-02-10T04:36:57;0.20;99.90
51825;DHT22;37879;52.986;6.282;2023-02-10T04:39:22;0.20;99.90
51825;DHT22;37879;52.986;6.282;2023-02-10T04:41:48;0.20;99.90
51825;DHT22;37879;52.986;6.282;2023-02-10T04:44:14;0.20;99.90
51825;DHT22;37879;52.986;6.282;2023-02-10T04:46:39;0.30;99.90
51825;DHT22;37879;52.986;6.282;2023-02-10T04:49:05;0.30;99.90
51825;DHT22;37879;52.986;6.282;2023-02-10T04:51:30;0.50;99.90
51825;DHT22;37879;52.986;6.282;2023-02-10T04:53:56;0.60;99.90
51825;DHT22;37879;52.986;6.282;2023-02-10T04:56:22;-1.20;99.90
51825;DHT22;37879;52.986;6.282;2023-02-10T04:58:47;0.60;99.90
51825;DHT22;37879;52.986;6.282;2023-02-10T05:01:13;0.70;99.90
51825;DHT22;37879;52.986;6.282;2023-02-10T05:03:38;0.80;99.90
51825;DHT22;37879;52.986;6.282;2023-02-10T05:06:15;0.80;99.90
51825;DHT22;37879;52.986;6.282;2023-02-10T05:08:41;0.70;99.90
51825;DHT22;37879;52.986;6.282;2023-02-10T05:11:12;0.70;99.90
51825;DHT22;37879;52.986;6.282;2023-02-10T05:13:38;0.60;99.90
51825;DHT22;37879;52.986;6.282;2023-02-10T05:16:06;0.60;99.90
51825;DHT22;37879;52.986;6.282;2023-02-10T05:18:33;0.60;99.90
51825;DHT22;37879;52.986;6.282;2023-02-10T05:20:59;0.60;99.90
51825;DHT22;37879;52.986;6.282;2023-02-10T05:23:26;0.60;99.90
51825;DHT22;37879;52.986;6.282;2023-02-10T05:25:52;0.70;99.90
51825;DHT22;37879;52.986;6.282;2023-02-10T05:28:18;0.70;99.90
51825;DHT22;37879;52.986;6.282;2023-02-10T05:30:44;0.70;99.90
51825;DHT22;37879;52.986;6.282;2023-02-10T05:33:09;0.70;99.90
51825;DHT22;37879;52.986;6.282;2023-02-10T05:35:35;0.90;99.90
51825;DHT22;37879;52.986;6.282;2023-02-10T05:38:01;1.90;99.90
51825;DHT22;37879;52.986;6.282;2023-02-10T05:40:28;0.70;99.90
51825;DHT22;37879;52.986;6.282;2023-02-10T05:42:54;0.80;99.90
51825;DHT22;37879;52.986;6.282;2023-02-10T05:45:20;0.80;99.90
51825;DHT22;37879;52.986;6.282;2023-02-10T05:47:45;-0.30;99.90
51825;DHT22;37879;52.986;6.282;2023-02-10T05:50:11;0.90;99.90
51825;DHT22;37879;52.986;6.282;2023-02-10T05:52:37;0.90;99.90
51825;DHT22;37879;52.986;6.282;2023-02-10T05:55:03;0.90;99.90
51825;DHT22;37879;52.986;6.282;2023-02-10T05:57:29;0.90;99.90
51825;DHT22;37879;52.986;6.282;2023-02-10T05:59:54;0.80;99.90
51825;DHT22;37879;52.986;6.282;2023-02-10T06:02:20;0.80;99.90
51825;DHT22;37879;52.986;6.282;2023-02-10T06:04:46;0.80;99.90
51825;DHT22;37879;52.986;6.282;2023-02-10T06:07:11;0.80;99.90
51825;DHT22;37879;52.986;6.282;2023-02-10T06:09:37;0.90;99.90
51825;DHT22;37879;52.986;6.282;2023-02-10T06:12:05;0.90;99.90
51825;DHT22;37879;52.986;6.282;2023-02-10T06:14:31;0.80;99.90
51825;DHT22;37879;52.986;6.282;2023-02-10T06:16:56;0.80;99.90
51825;DHT22;37879;52.986;6.282;2023-02-10T06:19:22;0.80;99.90
51825;DHT22;37879;52.986;6.282;2023-02-10T06:21:49;0.80;99.90
51825;DHT22;37879;52.986;6.282;2023-02-10T06:24:15;0.70;99.90
51825;DHT22;37879;52.986;6.282;2023-02-10T06:26:41;0.70;99.90
51825;DHT22;37879;52.986;6.282;2023-02-10T06:29:07;0.70;99.90
51825;DHT22;37879;52.986;6.282;2023-02-10T06:31:32;0.70;99.90
51825;DHT22;37879;52.986;6.282;2023-02-10T06:33:58;0.80;99.90
51825;DHT22;37879;52.986;6.282;2023-02-10T06:36:24;0.80;99.90
51825;DHT22;37879;52.986;6.282;2023-02-10T06:38:50;0.80;99.90
51825;DHT22;37879;52.986;6.282;2023-02-10T06:41:15;0.80;99.90
51825;DHT22;37879;52.986;6.282;2023-02-10T06:43:41;0.80;99.90
51825;DHT22;37879;52.986;6.282;2023-02-10T06:46:07;0.80;99.90
51825;DHT22;37879;52.986;6.282;2023-02-10T06:48:33;0.80;99.90
51825;DHT22;37879;52.986;6.282;2023-02-10T06:50:59;0.80;99.90
51825;DHT22;37879;52.986;6.282;2023-02-10T06:53:24;0.70;99.90
51825;DHT22;37879;52.986;6.282;2023-02-10T06:55:50;0.70;99.90
51825;DHT22;37879;52.986;6.282;2023-02-10T06:58:16;0.60;99.90
51825;DHT22;37879;52.986;6.282;2023-02-10T07:00:42;0.70;99.90
51825;DHT22;37879;52.986;6.282;2023-02-10T07:03:08;0.60;99.90
51825;DHT22;37879;52.986;6.282;2023-02-10T07:05:34;0.60;99.90
51825;DHT22;37879;52.986;6.282;2023-02-10T07:08:01;0.60;99.90
51825;DHT22;37879;52.986;6.282;2023-02-10T07:10:30;0.70;99.90
51825;DHT22;37879;52.986;6.282;2023-02-10T07:12:56;0.70;99.90
51825;DHT22;37879;52.986;6.282;2023-02-10T07:15:22;0.60;99.90
51825;DHT22;37879;52.986;6.282;2023-02-10T07:17:49;0.60;99.90
51825;DHT22;37879;52.986;6.282;2023-02-10T07:20:19;0.80;99.90
51825;DHT22;37879;52.986;6.282;2023-02-10T07:22:45;0.70;99.90
51825;DHT22;37879;52.986;6.282;2023-02-10T07:25:11;2.00;99.90
51825;DHT22;37879;52.986;6.282;2023-02-10T07:27:37;0.80;99.90
51825;DHT22;37879;52.986;6.282;2023-02-10T07:30:03;0.90;99.90
51825;DHT22;37879;52.986;6.282;2023-02-10T07:32:28;0.90;99.90
51825;DHT22;37879;52.986;6.282;2023-02-10T07:34:54;0.90;99.90
51825;DHT22;37879;52.986;6.282;2023-02-10T07:37:19;0.90;99.90
51825;DHT22;37879;52.986;6.282;2023-02-10T07:39:45;1.00;99.90
51825;DHT22;37879;52.986;6.282;2023-02-10T07:42:11;0.90;99.90
51825;DHT22;37879;52.986;6.282;2023-02-10T07:44:36;1.00;99.90
51825;DHT22;37879;52.986;6.282;2023-02-10T07:47:02;1.00;99.90
51825;DHT22;37879;52.986;6.282;2023-02-10T07:49:28;0.90;99.90
51825;DHT22;37879;52.986;6.282;2023-02-10T07:51:55;1.00;99.90
51825;DHT22;37879;52.986;6.282;2023-02-10T07:54:21;1.00;99.90
51825;DHT22;37879;52.986;6.282;2023-02-10T07:56:46;1.10;99.90
51825;DHT22;37879;52.986;6.282;2023-02-10T07:59:12;-0.60;99.90
51825;DHT22;37879;52.986;6.282;2023-02-10T08:01:40;1.20;99.90
51825;DHT22;37879;52.986;6.282;2023-02-10T08:04:11;1.20;99.90
51825;DHT22;37879;52.986;6.282;2023-02-10T08:06:37;1.30;99.90
51825;DHT22;37879;52.986;6.282;2023-02-10T08:09:03;1.30;99.90
51825;DHT22;37879;52.986;6.282;2023-02-10T08:11:29;1.40;99.90
51825;DHT22;37879;52.986;6.282;2023-02-10T08:13:54;1.40;99.90
51825;DHT22;37879;52.986;6.282;2023-02-10T08:16:20;2.10;99.90
51825;DHT22;37879;52.986;6.282;2023-02-10T08:18:48;1.60;99.90
51825;DHT22;37879;52.986;6.282;2023-02-10T08:21:14;1.70;99.90
51825;DHT22;37879;52.986;6.282;2023-02-10T08:23:43;1.70;99.90
51825;DHT22;37879;52.986;6.282;2023-02-10T08:26:11;1.70;99.90
51825;DHT22;37879;52.986;6.282;2023-02-10T08:28:39;1.70;99.90
51825;DHT22;37879;52.986;6.282;2023-02-10T08:31:06;1.80;99.90
51825;DHT22;37879;52.986;6.282;2023-02-10T08:33:37;1.80;99.90
51825;DHT22;37879;52.986;6.282;2023-02-10T08:36:08;1.90;99.90
51825;DHT22;37879;52.986;6.282;2023-02-10T08:38:34;2.00;99.90
51825;DHT22;37879;52.986;6.282;2023-02-10T08:41:01;2.00;99.90
51825;DHT22;37879;52.986;6.282;2023-02-10T08:43:27;2.10;99.90
51825;DHT22;37879;52.986;6.282;2023-02-10T08:45:55;2.20;99.90
51825;DHT22;37879;52.986;6.282;2023-02-10T08:48:22;2.30;99.90
51825;DHT22;37879;52.986;6.282;2023-02-10T08:50:47;2.30;99.90
51825;DHT22;37879;52.986;6.282;2023-02-10T08:53:13;2.40;99.90
51825;DHT22;37879;52.986;6.282;2023-02-10T08:55:38;2.30;99.90
51825;DHT22;37879;52.986;6.282;2023-02-10T08:58:04;2.40;99.90
51825;DHT22;37879;52.986;6.282;2023-02-10T09:00:31;2.40;99.90
51825;DHT22;37879;52.986;6.282;2023-02-10T09:02:56;2.40;99.90
51825;DHT22;37879;52.986;6.282;2023-02-10T09:05:22;2.50;99.90
51825;DHT22;37879;52.986;6.282;2023-02-10T09:07:47;2.50;99.90
51825;DHT22;37879;52.986;6.282;2023-02-10T09:10:14;2.50;99.90
51825;DHT22;37879;52.986;6.282;2023-02-10T09:12:40;2.50;99.90
51825;DHT22;37879;52.986;6.282;2023-02-10T09:15:06;2.50;99.90
51825;DHT22;37879;52.986;6.282;2023-02-10T09:17:32;2.50;99.90
51825;DHT22;37879;52.986;6.282;2023-02-10T09:19:58;2.50;99.90
51825;DHT22;37879;52.986;6.282;2023-02-10T09:22:23;2.50;99.90
51825;DHT22;37879;52.986;6.282;2023-02-10T09:24:49;2.40;99.90
51825;DHT22;37879;52.986;6.282;2023-02-10T09:27:18;2.40;99.90
51825;DHT22;37879;52.986;6.282;2023-02-10T09:29:43;2.40;99.90
51825;DHT22;37879;52.986;6.282;2023-02-10T09:32:09;2.40;99.90
51825;DHT22;37879;52.986;6.282;2023-02-10T09:34:35;2.50;99.90
51825;DHT22;37879;52.986;6.282;2023-02-10T09:37:01;2.60;99.90
51825;DHT22;37879;52.986;6.282;2023-02-10T09:39:28;2.70;99.90
51825;DHT22;37879;52.986;6.282;2023-02-10T09:42:20;2.80;99.90
51825;DHT22;37879;52.986;6.282;2023-02-10T09:45:03;2.90;99.90
51825;DHT22;37879;52.986;6.282;2023-02-10T09:47:51;3.00;99.90
51825;DHT22;37879;52.986;6.282;2023-02-10T09:50:47;3.10;99.90
51825;DHT22;37879;52.986;6.282;2023-02-10T09:53:21;3.20;99.90
51825;DHT22;37879;52.986;6.282;2023-02-10T09:56:04;3.30;99.90
51825;DHT22;37879;52.986;6.282;2023-02-10T10:01:35;3.50;99.90
51825;DHT22;37879;52.986;6.282;2023-02-10T10:04:16;3.60;99.90
51825;DHT22;37879;52.986;6.282;2023-02-10T10:06:49;3.60;99.90
51825;DHT22;37879;52.986;6.282;2023-02-10T10:09:42;3.70;99.90
51825;DHT22;37879;52.986;6.282;2023-02-10T10:12:18;3.80;99.90
51825;DHT22;37879;52.986;6.282;2023-02-10T10:14:44;3.90;99.90
51825;DHT22;37879;52.986;6.282;2023-02-10T10:23:01;4.00;99.90
51825;DHT22;37879;52.986;6.282;2023-02-10T10:31:14;4.20;99.90
51825;DHT22;37879;52.986;6.282;2023-02-10T10:36:58;4.40;99.90
51825;DHT22;37879;52.986;6.282;2023-02-10T10:39:41;4.50;99.90
51825;DHT22;37879;52.986;6.282;2023-02-10T10:42:30;4.60;99.90
51825;DHT22;37879;52.986;6.282;2023-02-10T10:45:11;4.70;99.90
51825;DHT22;37879;52.986;6.282;2023-02-10T10:47:45;4.80;99.90
51825;DHT22;37879;52.986;6.282;2023-02-10T10:50:14;4.80;99.90
51825;DHT22;37879;52.986;6.282;2023-02-10T10:52:41;4.90;99.90
51825;DHT22;37879;52.986;6.282;2023-02-10T10:55:35;5.00;99.90
51825;DHT22;37879;52.986;6.282;2023-02-10T10:58:19;5.10;99.90
51825;DHT22;37879;52.986;6.282;2023-02-10T11:00:58;5.20;99.90
51825;DHT22;37879;52.986;6.282;2023-02-10T11:03:24;5.20;99.90
51825;DHT22;37879;52.986;6.282;2023-02-10T11:08:35;5.40;99.90
51825;DHT22;37879;52.986;6.282;2023-02-10T11:11:04;5.50;99.90
51825;DHT22;37879;52.986;6.282;2023-02-10T11:13:37;5.60;99.90
51825;DHT22;37879;52.986;6.282;2023-02-10T11:16:05;5.70;99.90
51825;DHT22;37879;52.986;6.282;2023-02-10T11:18:32;5.80;99.90
51825;DHT22;37879;52.986;6.282;2023-02-10T11:21:02;5.80;99.90
51825;DHT22;37879;52.986;6.282;2023-02-10T11:23:28;5.90;99.90
51825;DHT22;37879;52.986;6.282;2023-02-10T11:26:01;5.80;99.90
51825;DHT22;37879;52.986;6.282;2023-02-10T11:28:29;6.20;99.90
51825;DHT22;37879;52.986;6.282;2023-02-10T11:30:59;6.30;99.90
51825;DHT22;37879;52.986;6.282;2023-02-10T11:33:32;6.40;99.90
51825;DHT22;37879;52.986;6.282;2023-02-10T11:36:05;6.40;99.90
51825;DHT22;37879;52.986;6.282;2023-02-10T11:38:33;6.50;99.90
51825;DHT22;37879;52.986;6.282;2023-02-10T11:41:01;6.50;99.90
51825;DHT22;37879;52.986;6.282;2023-02-10T11:43:42;6.60;99.90
51825;DHT22;37879;52.986;6.282;2023-02-10T11:46:29;7.00;99.90
51825;DHT22;37879;52.986;6.282;2023-02-10T11:49:01;7.00;99.90
51825;DHT22;37879;52.986;6.282;2023-02-10T11:51:29;7.20;99.90
51825;DHT22;37879;52.986;6.282;2023-02-10T11:53:55;7.20;99.90
51825;DHT22;37879;52.986;6.282;2023-02-10T11:56:45;7.30;99.90
51825;DHT22;37879;52.986;6.282;2023-02-10T12:00:00;7.40;99.90
51825;DHT22;37879;52.986;6.282;2023-02-10T12:08:39;7.30;99.90
51825;DHT22;37879;52.986;6.282;2023-02-10T12:11:12;7.60;99.90
51825;DHT22;37879;52.986;6.282;2023-02-10T12:19:59;7.00;99.90
51825;DHT22;37879;52.986;6.282;2023-02-10T12:28:29;7.10;99.90
51825;DHT22;37879;52.986;6.282;2023-02-10T12:31:20;7.10;99.90
51825;DHT22;37879;52.986;6.282;2023-02-10T12:39:17;7.30;99.90
51825;DHT22;37879;52.986;6.282;2023-02-10T12:44:47;7.30;99.90
51825;DHT22;37879;52.986;6.282;2023-02-10T12:47:39;7.40;99.90
51825;DHT22;37879;52.986;6.282;2023-02-10T12:52:58;7.40;99.90
51825;DHT22;37879;52.986;6.282;2023-02-10T12:55:43;7.50;99.90
51825;DHT22;37879;52.986;6.282;2023-02-10T12:58:15;7.40;99.90
51825;DHT22;37879;52.986;6.282;2023-02-10T13:01:16;7.50;99.90
51825;DHT22;37879;52.986;6.282;2023-02-10T13:03:46;7.50;99.90
51825;DHT22;37879;52.986;6.282;2023-02-10T13:09:09;7.50;99.90
51825;DHT22;37879;52.986;6.282;2023-02-10T13:11:48;7.60;99.90
51825;DHT22;37879;52.986;6.282;2023-02-10T13:14:20;7.70;99.90
51825;DHT22;37879;52.986;6.282;2023-02-10T13:16:53;7.80;99.90
51825;DHT22;37879;52.986;6.282;2023-02-10T13:25:12;7.70;99.90
51825;DHT22;37879;52.986;6.282;2023-02-10T13:35:49;7.80;99.90
51825;DHT22;37879;52.986;6.282;2023-02-10T13:38:18;7.80;99.90
51825;DHT22;37879;52.986;6.282;2023-02-10T13:40:48;7.80;99.90
51825;DHT22;37879;52.986;6.282;2023-02-10T13:43:28;7.80;99.90
51825;DHT22;37879;52.986;6.282;2023-02-10T13:45:55;7.80;99.90
51825;DHT22;37879;52.986;6.282;2023-02-10T13:48:24;7.80;99.90
51825;DHT22;37879;52.986;6.282;2023-02-10T13:50:57;7.80;99.90
51825;DHT22;37879;52.986;6.282;2023-02-10T14:01:49;7.70;99.90
51825;DHT22;37879;52.986;6.282;2023-02-10T14:06:49;7.90;99.90
51825;DHT22;37879;52.986;6.282;2023-02-10T14:09:34;7.90;99.90
51825;DHT22;37879;52.986;6.282;2023-02-10T14:12:04;7.90;99.90
51825;DHT22;37879;52.986;6.282;2023-02-10T14:14:36;8.20;99.90
51825;DHT22;37879;52.986;6.282;2023-02-10T14:19:35;7.90;99.90
51825;DHT22;37879;52.986;6.282;2023-02-10T14:22:03;7.90;99.90
51825;DHT22;37879;52.986;6.282;2023-02-10T14:24:34;8.00;99.90
51825;DHT22;37879;52.986;6.282;2023-02-10T14:27:03;7.90;99.90
51825;DHT22;37879;52.986;6.282;2023-02-10T14:29:32;8.00;99.90
51825;DHT22;37879;52.986;6.282;2023-02-10T14:32:00;8.00;99.90
51825;DHT22;37879;52.986;6.282;2023-02-10T14:34:32;8.00;99.90
51825;DHT22;37879;52.986;6.282;2023-02-10T14:39:26;8.00;99.90
51825;DHT22;37879;52.986;6.282;2023-02-10T14:41:54;8.00;99.90
51825;DHT22;37879;52.986;6.282;2023-02-10T14:44:34;8.00;99.90
51825;DHT22;37879;52.986;6.282;2023-02-10T14:47:02;8.00;99.90
51825;DHT22;37879;52.986;6.282;2023-02-10T14:49:28;7.90;99.90
51825;DHT22;37879;52.986;6.282;2023-02-10T14:51:58;7.90;99.90
51825;DHT22;37879;52.986;6.282;2023-02-10T14:54:25;7.80;99.90
51825;DHT22;37879;52.986;6.282;2023-02-10T14:57:02;7.80;99.90
51825;DHT22;37879;52.986;6.282;2023-02-10T14:59:31;7.70;99.90
51825;DHT22;37879;52.986;6.282;2023-02-10T15:02:10;7.60;99.90
51825;DHT22;37879;52.986;6.282;2023-02-10T15:04:43;7.70;99.90
51825;DHT22;37879;52.986;6.282;2023-02-10T15:07:17;7.30;99.90
51825;DHT22;37879;52.986;6.282;2023-02-10T15:09:44;7.30;99.90
51825;DHT22;37879;52.986;6.282;2023-02-10T15:12:13;7.20;99.90
51825;DHT22;37879;52.986;6.282;2023-02-10T15:17:18;7.20;99.90
51825;DHT22;37879;52.986;6.282;2023-02-10T15:22:44;7.20;99.90
51825;DHT22;37879;52.986;6.282;2023-02-10T15:30:57;7.20;99.90
51825;DHT22;37879;52.986;6.282;2023-02-10T15:33:36;7.20;99.90
51825;DHT22;37879;52.986;6.282;2023-02-10T15:38:53;7.10;99.90
51825;DHT22;37879;52.986;6.282;2023-02-10T15:43:57;7.00;99.90
51825;DHT22;37879;52.986;6.282;2023-02-10T15:46:25;6.90;99.90
51825;DHT22;37879;52.986;6.282;2023-02-10T15:48:51;6.90;99.90
51825;DHT22;37879;52.986;6.282;2023-02-10T15:51:26;6.90;99.90
51825;DHT22;37879;52.986;6.282;2023-02-10T15:53:53;6.70;99.90
51825;DHT22;37879;52.986;6.282;2023-02-10T15:56:23;6.70;99.90
51825;DHT22;37879;52.986;6.282;2023-02-10T15:58:50;6.60;99.90
51825;DHT22;37879;52.986;6.282;2023-02-10T16:01:16;6.50;99.90
51825;DHT22;37879;52.986;6.282;2023-02-10T16:03:41;6.70;99.90
51825;DHT22;37879;52.986;6.282;2023-02-10T16:06:14;6.40;99.90
51825;DHT22;37879;52.986;6.282;2023-02-10T16:08:41;6.40;99.90
51825;DHT22;37879;52.986;6.282;2023-02-10T16:11:09;5.50;99.90
51825;DHT22;37879;52.986;6.282;2023-02-10T16:13:36;6.30;99.90
51825;DHT22;37879;52.986;6.282;2023-02-10T16:16:01;6.30;99.90
51825;DHT22;37879;52.986;6.282;2023-02-10T16:18:28;6.30;99.90
51825;DHT22;37879;52.986;6.282;2023-02-10T16:20:55;6.20;99.90
51825;DHT22;37879;52.986;6.282;2023-02-10T16:23:21;6.20;99.90
51825;DHT22;37879;52.986;6.282;2023-02-10T16:25:47;6.10;99.90
51825;DHT22;37879;52.986;6.282;2023-02-10T16:28:15;6.00;99.90
51825;DHT22;37879;52.986;6.282;2023-02-10T16:30:41;5.90;99.90
51825;DHT22;37879;52.986;6.282;2023-02-10T16:33:07;5.90;99.90
51825;DHT22;37879;52.986;6.282;2023-02-10T16:35:33;6.10;99.90
51825;DHT22;37879;52.986;6.282;2023-02-10T16:37:59;5.90;99.90
51825;DHT22;37879;52.986;6.282;2023-02-10T16:40:28;6.10;99.90
51825;DHT22;37879;52.986;6.282;2023-02-10T16:42:54;5.80;99.90
51825;DHT22;37879;52.986;6.282;2023-02-10T16:45:26;5.80;99.90
51825;DHT22;37879;52.986;6.282;2023-02-10T16:47:52;5.80;99.90
51825;DHT22;37879;52.986;6.282;2023-02-10T16:50:39;5.80;99.90
51825;DHT22;37879;52.986;6.282;2023-02-10T16:53:05;5.70;99.90
51825;DHT22;37879;52.986;6.282;2023-02-10T16:55:33;5.70;99.90
51825;DHT22;37879;52.986;6.282;2023-02-10T16:57:58;5.70;99.90
51825;DHT22;37879;52.986;6.282;2023-02-10T17:00:25;5.80;99.90
51825;DHT22;37879;52.986;6.282;2023-02-10T17:02:51;5.80;99.90
51825;DHT22;37879;52.986;6.282;2023-02-10T17:05:18;5.80;99.90
51825;DHT22;37879;52.986;6.282;2023-02-10T17:07:44;5.80;99.90
51825;DHT22;37879;52.986;6.282;2023-02-10T17:10:22;5.80;99.90
51825;DHT22;37879;52.986;6.282;2023-02-10T17:12:48;5.80;99.90
51825;DHT22;37879;52.986;6.282;2023-02-10T17:15:14;6.00;99.90
51825;DHT22;37879;52.986;6.282;2023-02-10T17:17:40;5.90;99.90
51825;DHT22;37879;52.986;6.282;2023-02-10T17:20:09;5.90;99.90
51825;DHT22;37879;52.986;6.282;2023-02-10T17:22:38;5.90;99.90
51825;DHT22;37879;52.986;6.282;2023-02-10T17:25:05;6.00;99.90
51825;DHT22;37879;52.986;6.282;2023-02-10T17:27:31;6.00;99.90
51825;DHT22;37879;52.986;6.282;2023-02-10T17:29:56;6.10;99.90
51825;DHT22;37879;52.986;6.282;2023-02-10T17:32:22;6.10;99.90
51825;DHT22;37879;52.986;6.282;2023-02-10T17:34:47;6.10;99.90
51825;DHT22;37879;52.986;6.282;2023-02-10T17:37:14;6.10;99.90
51825;DHT22;37879;52.986;6.282;2023-02-10T17:39:40;6.40;99.90
51825;DHT22;37879;52.986;6.282;2023-02-10T17:42:06;6.20;99.90
51825;DHT22;37879;52.986;6.282;2023-02-10T17:44:32;6.30;99.90
51825;DHT22;37879;52.986;6.282;2023-02-10T17:46:58;6.60;99.90
51825;DHT22;37879;52.986;6.282;2023-02-10T17:49:33;6.30;99.90
51825;DHT22;37879;52.986;6.282;2023-02-10T17:51:59;6.40;99.90
51825;DHT22;37879;52.986;6.282;2023-02-10T17:54:26;6.40;99.90